New Ipswich, New Hampshire
Current Conditions -  °F | °C
As of 5:52 AM on Sunday 23 Nov 2014 (Local Time) from KAFN Reporting Station
Clear Clear  
Wind Chill: 29°   Ceiling: Unl
Heat Index: 36°   Visibility: 10mi
Dew Point: 27°   Wind: 9mph
Humidity: 70%   Direction: 200°SSW
Pressure: 30.04"   Gusts: NA
Location:  42.75°N, 71.85°W
Report Text: KAFN 231052Z AUTO 20008KT 10SM CLR 02/M03 A3004 RMK AO2 SLP188 T00221028
Loading
Personal Weather Stations






























Interactive Weather Map New forecast layout! Learn more

10-Day Weather Forecast

Advertisements
Track Severe Weather on mobile